Shingle Springs, California
Current Conditions -  °F | °C
As of 11:35 AM on Saturday 25 Oct 2014 (Local Time) from KPVF Reporting Station
Overcast Overcast  
Wind Chill: 44°   Ceiling: 200
Heat Index: 48°   Visibility: 0.5mi
Dew Point: 48°   Wind: 9mph
Humidity: 100%   Direction: 200°SSW
Pressure: 30.12"   Gusts: 17mph
Location:  38.67°N, 120.94°W
Report Text: KPVF 251835Z AUTO 20008G15KT 1/2SM OVC002 09/09 A3012 RMK AO1 P0009
Loading
Personal Weather Stations






























Interactive Weather Map
Tropical Storm Tracking
New forecast layout! Learn more

10-Day Weather Forecast

Advertisements
Track Severe Weather on mobile